sensor_id;sensor_type;location;lat;lon;timestamp;temperature;humidity
31729;DHT22;18309;43.658;1.312;2024-03-08T00:01:14;12.70;99.90
31729;DHT22;18309;43.658;1.312;2024-03-08T00:03:42;12.80;99.90
31729;DHT22;18309;43.658;1.312;2024-03-08T00:06:07;12.70;99.90
31729;DHT22;18309;43.658;1.312;2024-03-08T00:08:33;12.70;99.90
31729;DHT22;18309;43.658;1.312;2024-03-08T00:10:59;12.70;99.90
31729;DHT22;18309;43.658;1.312;2024-03-08T00:13:24;12.70;99.90
31729;DHT22;18309;43.658;1.312;2024-03-08T00:15:51;12.70;99.90
31729;DHT22;18309;43.658;1.312;2024-03-08T00:18:16;12.70;99.90
31729;DHT22;18309;43.658;1.312;2024-03-08T00:20:42;12.70;99.90
31729;DHT22;18309;43.658;1.312;2024-03-08T00:23:09;12.60;99.90
31729;DHT22;18309;43.658;1.312;2024-03-08T00:25:36;12.70;99.90
31729;DHT22;18309;43.658;1.312;2024-03-08T00:28:02;12.70;99.90
31729;DHT22;18309;43.658;1.312;2024-03-08T00:30:30;12.70;99.90
31729;DHT22;18309;43.658;1.312;2024-03-08T00:32:56;12.60;99.90
31729;DHT22;18309;43.658;1.312;2024-03-08T00:35:22;12.60;99.90
31729;DHT22;18309;43.658;1.312;2024-03-08T00:37:48;12.60;99.90
31729;DHT22;18309;43.658;1.312;2024-03-08T00:40:14;12.60;99.90
31729;DHT22;18309;43.658;1.312;2024-03-08T00:42:40;12.60;99.90
31729;DHT22;18309;43.658;1.312;2024-03-08T00:45:07;12.60;99.90
31729;DHT22;18309;43.658;1.312;2024-03-08T00:47:33;12.60;99.90
31729;DHT22;18309;43.658;1.312;2024-03-08T00:49:59;12.60;99.90
31729;DHT22;18309;43.658;1.312;2024-03-08T00:52:24;12.60;99.90
31729;DHT22;18309;43.658;1.312;2024-03-08T00:54:50;12.60;99.90
31729;DHT22;18309;43.658;1.312;2024-03-08T00:57:16;12.60;99.90
31729;DHT22;18309;43.658;1.312;2024-03-08T00:59:41;12.60;99.90
31729;DHT22;18309;43.658;1.312;2024-03-08T01:02:07;12.60;99.90
31729;DHT22;18309;43.658;1.312;2024-03-08T01:04:34;12.60;99.90
31729;DHT22;18309;43.658;1.312;2024-03-08T01:07:00;12.60;99.90
31729;DHT22;18309;43.658;1.312;2024-03-08T01:09:26;12.60;99.90
31729;DHT22;18309;43.658;1.312;2024-03-08T01:11:53;12.60;99.90
31729;DHT22;18309;43.658;1.312;2024-03-08T01:14:23;12.50;99.90
31729;DHT22;18309;43.658;1.312;2024-03-08T01:16:49;12.60;99.90
31729;DHT22;18309;43.658;1.312;2024-03-08T01:19:15;12.50;99.90
31729;DHT22;18309;43.658;1.312;2024-03-08T01:21:41;12.50;99.90
31729;DHT22;18309;43.658;1.312;2024-03-08T01:24:07;12.50;99.90
31729;DHT22;18309;43.658;1.312;2024-03-08T01:26:33;12.50;99.90
31729;DHT22;18309;43.658;1.312;2024-03-08T01:29:02;12.60;99.90
31729;DHT22;18309;43.658;1.312;2024-03-08T01:31:29;12.60;99.90
31729;DHT22;18309;43.658;1.312;2024-03-08T01:33:58;12.60;99.90
31729;DHT22;18309;43.658;1.312;2024-03-08T01:36:24;12.50;99.90
31729;DHT22;18309;43.658;1.312;2024-03-08T01:38:51;12.50;99.90
31729;DHT22;18309;43.658;1.312;2024-03-08T01:41:17;12.50;99.90
31729;DHT22;18309;43.658;1.312;2024-03-08T01:43:43;12.50;99.90
31729;DHT22;18309;43.658;1.312;2024-03-08T01:46:10;12.60;99.90
31729;DHT22;18309;43.658;1.312;2024-03-08T01:48:38;12.60;99.90
31729;DHT22;18309;43.658;1.312;2024-03-08T01:51:06;12.60;99.90
31729;DHT22;18309;43.658;1.312;2024-03-08T01:53:32;12.50;99.90
31729;DHT22;18309;43.658;1.312;2024-03-08T01:55:59;12.60;99.90
31729;DHT22;18309;43.658;1.312;2024-03-08T01:58:29;12.50;99.90
31729;DHT22;18309;43.658;1.312;2024-03-08T02:00:56;12.50;99.90
31729;DHT22;18309;43.658;1.312;2024-03-08T02:03:23;12.50;99.90
31729;DHT22;18309;43.658;1.312;2024-03-08T02:05:49;12.50;99.90
31729;DHT22;18309;43.658;1.312;2024-03-08T02:08:15;12.50;99.90
31729;DHT22;18309;43.658;1.312;2024-03-08T02:10:43;12.50;99.90
31729;DHT22;18309;43.658;1.312;2024-03-08T02:13:09;12.60;99.90
31729;DHT22;18309;43.658;1.312;2024-03-08T02:15:54;12.50;99.90
31729;DHT22;18309;43.658;1.312;2024-03-08T02:18:21;12.50;99.90
31729;DHT22;18309;43.658;1.312;2024-03-08T02:20:49;12.50;99.90
31729;DHT22;18309;43.658;1.312;2024-03-08T02:23:15;12.50;99.90
31729;DHT22;18309;43.658;1.312;2024-03-08T02:25:40;12.50;99.90
31729;DHT22;18309;43.658;1.312;2024-03-08T02:28:12;12.50;99.90
31729;DHT22;18309;43.658;1.312;2024-03-08T02:30:38;12.50;99.90
31729;DHT22;18309;43.658;1.312;2024-03-08T02:33:05;12.50;99.90
31729;DHT22;18309;43.658;1.312;2024-03-08T02:35:34;12.40;99.90
31729;DHT22;18309;43.658;1.312;2024-03-08T02:38:01;12.40;99.90
31729;DHT22;18309;43.658;1.312;2024-03-08T02:40:27;12.40;99.90
31729;DHT22;18309;43.658;1.312;2024-03-08T02:42:52;12.40;99.90
31729;DHT22;18309;43.658;1.312;2024-03-08T02:45:18;12.40;99.90
31729;DHT22;18309;43.658;1.312;2024-03-08T02:47:44;12.40;99.90
31729;DHT22;18309;43.658;1.312;2024-03-08T02:50:13;12.40;99.90
31729;DHT22;18309;43.658;1.312;2024-03-08T02:52:44;12.40;99.90
31729;DHT22;18309;43.658;1.312;2024-03-08T02:55:12;12.40;99.90
31729;DHT22;18309;43.658;1.312;2024-03-08T02:57:41;12.40;99.90
31729;DHT22;18309;43.658;1.312;2024-03-08T03:00:07;12.40;99.90
31729;DHT22;18309;43.658;1.312;2024-03-08T03:02:36;12.40;99.90
31729;DHT22;18309;43.658;1.312;2024-03-08T03:05:03;12.40;99.90
31729;DHT22;18309;43.658;1.312;2024-03-08T03:07:32;12.40;99.90
31729;DHT22;18309;43.658;1.312;2024-03-08T03:09:59;12.40;99.90
31729;DHT22;18309;43.658;1.312;2024-03-08T03:12:27;12.40;99.90
31729;DHT22;18309;43.658;1.312;2024-03-08T03:14:53;12.40;99.90
31729;DHT22;18309;43.658;1.312;2024-03-08T03:17:18;12.40;99.90
31729;DHT22;18309;43.658;1.312;2024-03-08T03:19:45;12.30;99.90
31729;DHT22;18309;43.658;1.312;2024-03-08T03:22:12;12.30;99.90
31729;DHT22;18309;43.658;1.312;2024-03-08T03:24:38;12.30;99.90
31729;DHT22;18309;43.658;1.312;2024-03-08T03:27:07;12.30;99.90
31729;DHT22;18309;43.658;1.312;2024-03-08T03:29:39;12.30;99.90
31729;DHT22;18309;43.658;1.312;2024-03-08T03:32:08;12.30;99.90
31729;DHT22;18309;43.658;1.312;2024-03-08T03:34:34;12.30;99.90
31729;DHT22;18309;43.658;1.312;2024-03-08T03:37:03;12.30;99.90
31729;DHT22;18309;43.658;1.312;2024-03-08T03:39:29;12.30;99.90
31729;DHT22;18309;43.658;1.312;2024-03-08T03:42:02;12.30;99.90
31729;DHT22;18309;43.658;1.312;2024-03-08T03:44:28;12.30;99.90
31729;DHT22;18309;43.658;1.312;2024-03-08T03:46:54;12.30;99.90
31729;DHT22;18309;43.658;1.312;2024-03-08T03:49:20;12.30;99.90
31729;DHT22;18309;43.658;1.312;2024-03-08T03:51:46;12.30;99.90
31729;DHT22;18309;43.658;1.312;2024-03-08T03:54:12;12.30;99.90
31729;DHT22;18309;43.658;1.312;2024-03-08T03:56:38;12.30;99.90
31729;DHT22;18309;43.658;1.312;2024-03-08T03:59:05;12.30;99.90
31729;DHT22;18309;43.658;1.312;2024-03-08T04:01:33;12.30;99.90
31729;DHT22;18309;43.658;1.312;2024-03-08T04:03:59;12.30;99.90
31729;DHT22;18309;43.658;1.312;2024-03-08T04:06:25;12.30;99.90
31729;DHT22;18309;43.658;1.312;2024-03-08T04:08:50;12.30;99.90
31729;DHT22;18309;43.658;1.312;2024-03-08T04:11:16;12.30;99.90
31729;DHT22;18309;43.658;1.312;2024-03-08T04:13:43;12.30;99.90
31729;DHT22;18309;43.658;1.312;2024-03-08T04:16:08;12.30;99.90
31729;DHT22;18309;43.658;1.312;2024-03-08T04:18:36;12.30;99.90
31729;DHT22;18309;43.658;1.312;2024-03-08T04:21:06;12.30;99.90
31729;DHT22;18309;43.658;1.312;2024-03-08T04:23:33;12.30;99.90
31729;DHT22;18309;43.658;1.312;2024-03-08T04:26:01;12.30;99.90
31729;DHT22;18309;43.658;1.312;2024-03-08T04:28:27;12.20;99.90
31729;DHT22;18309;43.658;1.312;2024-03-08T04:30:53;12.20;99.90
31729;DHT22;18309;43.658;1.312;2024-03-08T04:33:20;12.20;99.90
31729;DHT22;18309;43.658;1.312;2024-03-08T04:35:47;12.30;99.90
31729;DHT22;18309;43.658;1.312;2024-03-08T04:38:12;12.20;99.90
31729;DHT22;18309;43.658;1.312;2024-03-08T04:40:38;12.20;99.90
31729;DHT22;18309;43.658;1.312;2024-03-08T04:43:05;12.30;99.90
31729;DHT22;18309;43.658;1.312;2024-03-08T04:45:31;12.30;99.90
31729;DHT22;18309;43.658;1.312;2024-03-08T04:47:57;12.30;99.90
31729;DHT22;18309;43.658;1.312;2024-03-08T04:50:23;12.20;99.90
31729;DHT22;18309;43.658;1.312;2024-03-08T04:52:49;12.20;99.90
31729;DHT22;18309;43.658;1.312;2024-03-08T04:55:14;12.20;99.90
31729;DHT22;18309;43.658;1.312;2024-03-08T04:57:40;12.20;99.90
31729;DHT22;18309;43.658;1.312;2024-03-08T05:00:07;12.30;99.90
31729;DHT22;18309;43.658;1.312;2024-03-08T05:02:37;12.30;99.90
31729;DHT22;18309;43.658;1.312;2024-03-08T05:05:05;12.30;99.90
31729;DHT22;18309;43.658;1.312;2024-03-08T05:07:40;12.30;99.90
31729;DHT22;18309;43.658;1.312;2024-03-08T05:10:07;12.30;99.90
31729;DHT22;18309;43.658;1.312;2024-03-08T05:12:34;12.30;99.90
31729;DHT22;18309;43.658;1.312;2024-03-08T05:14:59;12.30;99.90
31729;DHT22;18309;43.658;1.312;2024-03-08T05:17:25;12.30;99.90
31729;DHT22;18309;43.658;1.312;2024-03-08T05:19:51;12.30;99.90
31729;DHT22;18309;43.658;1.312;2024-03-08T05:22:17;12.30;99.90
31729;DHT22;18309;43.658;1.312;2024-03-08T05:24:44;12.30;99.90
31729;DHT22;18309;43.658;1.312;2024-03-08T05:27:10;12.30;99.90
31729;DHT22;18309;43.658;1.312;2024-03-08T05:29:36;12.30;99.90
31729;DHT22;18309;43.658;1.312;2024-03-08T05:32:03;12.20;99.90
31729;DHT22;18309;43.658;1.312;2024-03-08T05:34:29;12.30;99.90
31729;DHT22;18309;43.658;1.312;2024-03-08T05:36:56;12.30;99.90
31729;DHT22;18309;43.658;1.312;2024-03-08T05:39:23;12.30;99.90
31729;DHT22;18309;43.658;1.312;2024-03-08T05:41:49;12.30;99.90
31729;DHT22;18309;43.658;1.312;2024-03-08T05:44:16;12.20;99.90
31729;DHT22;18309;43.658;1.312;2024-03-08T05:46:44;12.30;99.90
31729;DHT22;18309;43.658;1.312;2024-03-08T05:49:12;12.30;99.90
31729;DHT22;18309;43.658;1.312;2024-03-08T05:51:39;12.30;99.90
31729;DHT22;18309;43.658;1.312;2024-03-08T05:54:10;12.30;99.90
31729;DHT22;18309;43.658;1.312;2024-03-08T05:56:36;12.30;99.90
31729;DHT22;18309;43.658;1.312;2024-03-08T05:59:02;12.30;99.90
31729;DHT22;18309;43.658;1.312;2024-03-08T06:01:28;12.30;99.90
31729;DHT22;18309;43.658;1.312;2024-03-08T06:03:55;12.30;99.90
31729;DHT22;18309;43.658;1.312;2024-03-08T06:06:22;12.30;99.90
31729;DHT22;18309;43.658;1.312;2024-03-08T06:08:48;12.30;99.90
31729;DHT22;18309;43.658;1.312;2024-03-08T06:11:15;12.30;99.90
31729;DHT22;18309;43.658;1.312;2024-03-08T06:13:40;12.30;99.90
31729;DHT22;18309;43.658;1.312;2024-03-08T06:16:06;12.30;99.90
31729;DHT22;18309;43.658;1.312;2024-03-08T06:18:34;12.30;99.90
31729;DHT22;18309;43.658;1.312;2024-03-08T06:21:05;12.30;99.90
31729;DHT22;18309;43.658;1.312;2024-03-08T06:23:34;12.30;99.90
31729;DHT22;18309;43.658;1.312;2024-03-08T06:26:09;12.30;99.90
31729;DHT22;18309;43.658;1.312;2024-03-08T06:28:35;12.40;99.90
31729;DHT22;18309;43.658;1.312;2024-03-08T06:31:02;12.30;99.90
31729;DHT22;18309;43.658;1.312;2024-03-08T06:33:28;12.40;99.90
31729;DHT22;18309;43.658;1.312;2024-03-08T06:35:57;12.40;99.90
31729;DHT22;18309;43.658;1.312;2024-03-08T06:38:23;12.40;99.90
31729;DHT22;18309;43.658;1.312;2024-03-08T06:40:49;12.40;99.90
31729;DHT22;18309;43.658;1.312;2024-03-08T06:43:17;12.30;99.90
31729;DHT22;18309;43.658;1.312;2024-03-08T06:45:43;12.30;99.90
31729;DHT22;18309;43.658;1.312;2024-03-08T06:48:15;12.40;99.90
31729;DHT22;18309;43.658;1.312;2024-03-08T06:50:40;12.40;99.90
31729;DHT22;18309;43.658;1.312;2024-03-08T06:53:06;12.40;99.90
31729;DHT22;18309;43.658;1.312;2024-03-08T06:55:32;12.40;99.90
31729;DHT22;18309;43.658;1.312;2024-03-08T06:57:58;12.40;99.90
31729;DHT22;18309;43.658;1.312;2024-03-08T07:00:24;12.40;99.90
31729;DHT22;18309;43.658;1.312;2024-03-08T07:02:52;12.40;99.90
31729;DHT22;18309;43.658;1.312;2024-03-08T07:05:19;12.40;99.90
31729;DHT22;18309;43.658;1.312;2024-03-08T07:07:45;12.40;99.90
31729;DHT22;18309;43.658;1.312;2024-03-08T07:10:14;12.40;99.90
31729;DHT22;18309;43.658;1.312;2024-03-08T07:12:43;12.10;99.90
31729;DHT22;18309;43.658;1.312;2024-03-08T07:15:09;11.90;99.90
31729;DHT22;18309;43.658;1.312;2024-03-08T07:17:41;11.80;99.90
31729;DHT22;18309;43.658;1.312;2024-03-08T07:20:10;11.70;99.90
31729;DHT22;18309;43.658;1.312;2024-03-08T07:22:38;11.70;99.90
31729;DHT22;18309;43.658;1.312;2024-03-08T07:25:07;11.70;99.90
31729;DHT22;18309;43.658;1.312;2024-03-08T07:27:34;11.60;99.90
31729;DHT22;18309;43.658;1.312;2024-03-08T07:30:02;11.70;99.90
31729;DHT22;18309;43.658;1.312;2024-03-08T07:32:28;11.60;99.90
31729;DHT22;18309;43.658;1.312;2024-03-08T07:34:58;11.60;99.90
31729;DHT22;18309;43.658;1.312;2024-03-08T07:37:23;11.50;99.90
31729;DHT22;18309;43.658;1.312;2024-03-08T07:39:49;11.40;99.90
31729;DHT22;18309;43.658;1.312;2024-03-08T07:42:15;11.30;99.90
31729;DHT22;18309;43.658;1.312;2024-03-08T07:44:42;11.30;99.90
31729;DHT22;18309;43.658;1.312;2024-03-08T07:47:08;11.30;99.90
31729;DHT22;18309;43.658;1.312;2024-03-08T07:49:35;11.30;99.90
31729;DHT22;18309;43.658;1.312;2024-03-08T07:52:05;11.30;99.90
31729;DHT22;18309;43.658;1.312;2024-03-08T07:54:33;11.30;99.90
31729;DHT22;18309;43.658;1.312;2024-03-08T07:57:00;11.20;99.90
31729;DHT22;18309;43.658;1.312;2024-03-08T07:59:28;11.20;99.90
31729;DHT22;18309;43.658;1.312;2024-03-08T08:01:55;11.20;99.90
31729;DHT22;18309;43.658;1.312;2024-03-08T08:04:20;11.10;99.90
31729;DHT22;18309;43.658;1.312;2024-03-08T08:06:50;11.10;99.90
31729;DHT22;18309;43.658;1.312;2024-03-08T08:09:16;11.10;99.90
31729;DHT22;18309;43.658;1.312;2024-03-08T08:11:54;11.10;99.90
31729;DHT22;18309;43.658;1.312;2024-03-08T08:14:20;11.00;99.90
31729;DHT22;18309;43.658;1.312;2024-03-08T08:16:47;10.90;99.90
31729;DHT22;18309;43.658;1.312;2024-03-08T08:19:14;10.90;99.90
31729;DHT22;18309;43.658;1.312;2024-03-08T08:21:41;10.90;99.90
31729;DHT22;18309;43.658;1.312;2024-03-08T08:24:07;10.80;99.90
31729;DHT22;18309;43.658;1.312;2024-03-08T08:26:32;10.80;99.90
31729;DHT22;18309;43.658;1.312;2024-03-08T08:28:59;10.70;99.90
31729;DHT22;18309;43.658;1.312;2024-03-08T08:31:25;10.60;99.90
31729;DHT22;18309;43.658;1.312;2024-03-08T08:33:51;10.60;99.90
31729;DHT22;18309;43.658;1.312;2024-03-08T08:36:26;10.60;99.90
31729;DHT22;18309;43.658;1.312;2024-03-08T08:38:51;10.60;99.90
31729;DHT22;18309;43.658;1.312;2024-03-08T08:41:25;10.50;99.90
31729;DHT22;18309;43.658;1.312;2024-03-08T08:43:50;10.20;99.90
31729;DHT22;18309;43.658;1.312;2024-03-08T08:46:19;9.70;99.90
31729;DHT22;18309;43.658;1.312;2024-03-08T08:48:46;9.40;99.90
31729;DHT22;18309;43.658;1.312;2024-03-08T08:51:12;9.40;99.90
31729;DHT22;18309;43.658;1.312;2024-03-08T08:53:42;9.60;99.90
31729;DHT22;18309;43.658;1.312;2024-03-08T08:56:13;9.50;99.90
31729;DHT22;18309;43.658;1.312;2024-03-08T08:58:42;9.40;99.90
31729;DHT22;18309;43.658;1.312;2024-03-08T09:01:11;9.50;99.90
31729;DHT22;18309;43.658;1.312;2024-03-08T09:03:37;9.60;99.90
31729;DHT22;18309;43.658;1.312;2024-03-08T09:06:09;9.60;99.90
31729;DHT22;18309;43.658;1.312;2024-03-08T09:08:37;9.50;99.90
31729;DHT22;18309;43.658;1.312;2024-03-08T09:11:03;9.40;99.90
31729;DHT22;18309;43.658;1.312;2024-03-08T09:13:29;9.40;99.90
31729;DHT22;18309;43.658;1.312;2024-03-08T09:15:55;9.40;99.90
31729;DHT22;18309;43.658;1.312;2024-03-08T09:18:21;8.90;99.90
31729;DHT22;18309;43.658;1.312;2024-03-08T09:20:48;8.60;99.90
31729;DHT22;18309;43.658;1.312;2024-03-08T09:23:14;8.40;99.90
31729;DHT22;18309;43.658;1.312;2024-03-08T09:25:42;8.10;99.90
31729;DHT22;18309;43.658;1.312;2024-03-08T09:28:09;8.10;99.90
31729;DHT22;18309;43.658;1.312;2024-03-08T09:30:37;8.10;99.90
31729;DHT22;18309;43.658;1.312;2024-03-08T09:33:04;8.00;99.90
31729;DHT22;18309;43.658;1.312;2024-03-08T09:35:30;7.90;99.90
31729;DHT22;18309;43.658;1.312;2024-03-08T09:37:55;7.80;99.90
31729;DHT22;18309;43.658;1.312;2024-03-08T09:40:21;7.80;99.90
31729;DHT22;18309;43.658;1.312;2024-03-08T09:42:49;7.80;99.90
31729;DHT22;18309;43.658;1.312;2024-03-08T09:45:17;7.80;99.90
31729;DHT22;18309;43.658;1.312;2024-03-08T09:47:44;7.80;99.90
31729;DHT22;18309;43.658;1.312;2024-03-08T09:50:11;7.80;99.90
31729;DHT22;18309;43.658;1.312;2024-03-08T09:52:41;7.80;99.90
31729;DHT22;18309;43.658;1.312;2024-03-08T09:55:10;7.80;99.90
31729;DHT22;18309;43.658;1.312;2024-03-08T09:57:37;7.90;99.90
31729;DHT22;18309;43.658;1.312;2024-03-08T10:00:04;7.80;99.90
31729;DHT22;18309;43.658;1.312;2024-03-08T10:03:02;7.80;99.90
31729;DHT22;18309;43.658;1.312;2024-03-08T10:05:30;7.70;99.90
31729;DHT22;18309;43.658;1.312;2024-03-08T10:07:58;7.80;99.90
31729;DHT22;18309;43.658;1.312;2024-03-08T10:10:24;7.90;99.90
31729;DHT22;18309;43.658;1.312;2024-03-08T10:12:49;7.70;99.90
31729;DHT22;18309;43.658;1.312;2024-03-08T10:15:16;7.90;99.90
31729;DHT22;18309;43.658;1.312;2024-03-08T10:17:42;8.00;99.90
31729;DHT22;18309;43.658;1.312;2024-03-08T10:20:17;8.00;99.90
31729;DHT22;18309;43.658;1.312;2024-03-08T10:22:43;8.20;99.90
31729;DHT22;18309;43.658;1.312;2024-03-08T10:25:13;8.40;99.90
31729;DHT22;18309;43.658;1.312;2024-03-08T10:27:39;8.40;99.90
31729;DHT22;18309;43.658;1.312;2024-03-08T10:30:14;8.40;99.90
31729;DHT22;18309;43.658;1.312;2024-03-08T10:32:40;8.50;99.90
31729;DHT22;18309;43.658;1.312;2024-03-08T10:35:07;8.40;99.90
31729;DHT22;18309;43.658;1.312;2024-03-08T10:37:45;8.40;99.90
31729;DHT22;18309;43.658;1.312;2024-03-08T10:40:17;8.50;99.90
31729;DHT22;18309;43.658;1.312;2024-03-08T10:45:37;8.70;99.90
31729;DHT22;18309;43.658;1.312;2024-03-08T10:50:49;8.80;99.90
31729;DHT22;18309;43.658;1.312;2024-03-08T10:53:17;8.90;99.90
31729;DHT22;18309;43.658;1.312;2024-03-08T10:55:44;9.00;99.90
31729;DHT22;18309;43.658;1.312;2024-03-08T10:58:10;9.00;99.90
31729;DHT22;18309;43.658;1.312;2024-03-08T11:00:36;9.00;99.90
31729;DHT22;18309;43.658;1.312;2024-03-08T11:03:03;9.10;99.90
31729;DHT22;18309;43.658;1.312;2024-03-08T11:05:39;9.10;99.90
31729;DHT22;18309;43.658;1.312;2024-03-08T11:08:18;8.80;99.90
31729;DHT22;18309;43.658;1.312;2024-03-08T11:10:50;8.70;99.90
31729;DHT22;18309;43.658;1.312;2024-03-08T11:13:41;9.10;99.90
31729;DHT22;18309;43.658;1.312;2024-03-08T11:16:36;9.20;99.90
31729;DHT22;18309;43.658;1.312;2024-03-08T11:18:59;9.00;99.90
31729;DHT22;18309;43.658;1.312;2024-03-08T11:21:32;9.00;99.90
31729;DHT22;18309;43.658;1.312;2024-03-08T11:24:00;8.90;99.90
31729;DHT22;18309;43.658;1.312;2024-03-08T11:26:25;9.00;99.90
31729;DHT22;18309;43.658;1.312;2024-03-08T11:28:51;9.10;99.90
31729;DHT22;18309;43.658;1.312;2024-03-08T11:31:22;9.10;99.90
31729;DHT22;18309;43.658;1.312;2024-03-08T11:33:49;9.30;99.90
31729;DHT22;18309;43.658;1.312;2024-03-08T11:36:23;9.50;99.90
31729;DHT22;18309;43.658;1.312;2024-03-08T11:38:50;9.80;99.90
31729;DHT22;18309;43.658;1.312;2024-03-08T11:41:22;9.80;99.90
31729;DHT22;18309;43.658;1.312;2024-03-08T11:43:52;9.90;99.90
31729;DHT22;18309;43.658;1.312;2024-03-08T11:46:26;9.30;99.90
31729;DHT22;18309;43.658;1.312;2024-03-08T11:48:54;9.40;99.90
31729;DHT22;18309;43.658;1.312;2024-03-08T11:51:21;9.50;99.90
31729;DHT22;18309;43.658;1.312;2024-03-08T11:53:49;9.80;99.90
31729;DHT22;18309;43.658;1.312;2024-03-08T11:56:16;10.30;99.90
31729;DHT22;18309;43.658;1.312;2024-03-08T11:58:42;10.50;99.90
31729;DHT22;18309;43.658;1.312;2024-03-08T12:01:09;10.80;99.90
31729;DHT22;18309;43.658;1.312;2024-03-08T12:03:41;11.00;99.90
31729;DHT22;18309;43.658;1.312;2024-03-08T12:06:10;11.10;99.90
31729;DHT22;18309;43.658;1.312;2024-03-08T12:08:36;11.20;99.90
31729;DHT22;18309;43.658;1.312;2024-03-08T12:11:04;11.20;99.90
31729;DHT22;18309;43.658;1.312;2024-03-08T12:13:34;11.10;99.90
31729;DHT22;18309;43.658;1.312;2024-03-08T12:16:03;11.10;99.90
31729;DHT22;18309;43.658;1.312;2024-03-08T12:18:33;10.90;99.90
31729;DHT22;18309;43.658;1.312;2024-03-08T12:21:10;11.00;99.90
31729;DHT22;18309;43.658;1.312;2024-03-08T12:23:38;11.00;99.90
31729;DHT22;18309;43.658;1.312;2024-03-08T12:26:18;11.00;99.90
31729;DHT22;18309;43.658;1.312;2024-03-08T12:28:48;11.00;99.90
31729;DHT22;18309;43.658;1.312;2024-03-08T12:31:15;11.00;99.90
31729;DHT22;18309;43.658;1.312;2024-03-08T12:33:52;11.10;99.90
31729;DHT22;18309;43.658;1.312;2024-03-08T12:36:20;11.30;99.90
31729;DHT22;18309;43.658;1.312;2024-03-08T12:38:49;11.40;99.90
31729;DHT22;18309;43.658;1.312;2024-03-08T12:41:18;11.60;99.90
31729;DHT22;18309;43.658;1.312;2024-03-08T12:43:48;11.70;99.90
31729;DHT22;18309;43.658;1.312;2024-03-08T12:46:16;11.70;99.90
31729;DHT22;18309;43.658;1.312;2024-03-08T12:48:45;11.80;99.90
31729;DHT22;18309;43.658;1.312;2024-03-08T12:51:15;11.80;99.90
31729;DHT22;18309;43.658;1.312;2024-03-08T12:53:44;11.80;99.90
31729;DHT22;18309;43.658;1.312;2024-03-08T12:56:11;11.90;99.90
31729;DHT22;18309;43.658;1.312;2024-03-08T12:58:37;12.10;99.90
31729;DHT22;18309;43.658;1.312;2024-03-08T13:01:04;12.10;99.90
31729;DHT22;18309;43.658;1.312;2024-03-08T13:03:36;12.20;99.90
31729;DHT22;18309;43.658;1.312;2024-03-08T13:06:05;12.40;99.90
31729;DHT22;18309;43.658;1.312;2024-03-08T13:08:37;12.60;99.90
31729;DHT22;18309;43.658;1.312;2024-03-08T13:11:07;12.50;99.90
31729;DHT22;18309;43.658;1.312;2024-03-08T13:13:36;12.30;99.90
31729;DHT22;18309;43.658;1.312;2024-03-08T13:16:05;12.50;99.90
31729;DHT22;18309;43.658;1.312;2024-03-08T13:18:34;12.70;99.90
31729;DHT22;18309;43.658;1.312;2024-03-08T13:20:59;12.80;99.90
31729;DHT22;18309;43.658;1.312;2024-03-08T13:23:30;13.10;99.90
31729;DHT22;18309;43.658;1.312;2024-03-08T13:25:56;13.00;99.90
31729;DHT22;18309;43.658;1.312;2024-03-08T13:28:23;13.20;99.90
31729;DHT22;18309;43.658;1.312;2024-03-08T13:30:53;13.50;99.90
31729;DHT22;18309;43.658;1.312;2024-03-08T13:33:19;13.60;99.90
31729;DHT22;18309;43.658;1.312;2024-03-08T13:35:46;13.60;99.90
31729;DHT22;18309;43.658;1.312;2024-03-08T13:38:12;13.70;99.90
31729;DHT22;18309;43.658;1.312;2024-03-08T13:40:39;13.60;99.90
31729;DHT22;18309;43.658;1.312;2024-03-08T13:43:06;13.70;99.90
31729;DHT22;18309;43.658;1.312;2024-03-08T13:45:34;13.70;99.90
31729;DHT22;18309;43.658;1.312;2024-03-08T13:48:03;13.60;99.90
31729;DHT22;18309;43.658;1.312;2024-03-08T13:50:30;13.60;99.90
31729;DHT22;18309;43.658;1.312;2024-03-08T13:52:56;13.40;99.90
31729;DHT22;18309;43.658;1.312;2024-03-08T13:55:23;13.40;99.90
31729;DHT22;18309;43.658;1.312;2024-03-08T13:57:49;13.30;99.90
31729;DHT22;18309;43.658;1.312;2024-03-08T14:00:16;13.20;99.90
31729;DHT22;18309;43.658;1.312;2024-03-08T14:02:42;13.00;99.90
31729;DHT22;18309;43.658;1.312;2024-03-08T14:05:08;13.00;99.90
31729;DHT22;18309;43.658;1.312;2024-03-08T14:07:37;13.10;99.90
31729;DHT22;18309;43.658;1.312;2024-03-08T14:10:04;13.10;99.90
31729;DHT22;18309;43.658;1.312;2024-03-08T14:12:32;13.00;99.90
31729;DHT22;18309;43.658;1.312;2024-03-08T14:14:58;12.90;99.90
31729;DHT22;18309;43.658;1.312;2024-03-08T14:17:25;12.90;99.90
31729;DHT22;18309;43.658;1.312;2024-03-08T14:19:53;12.80;99.90
31729;DHT22;18309;43.658;1.312;2024-03-08T14:22:18;12.90;99.90
31729;DHT22;18309;43.658;1.312;2024-03-08T14:24:45;13.00;99.90
31729;DHT22;18309;43.658;1.312;2024-03-08T14:27:11;13.10;99.90
31729;DHT22;18309;43.658;1.312;2024-03-08T14:29:38;13.20;99.90
31729;DHT22;18309;43.658;1.312;2024-03-08T14:32:07;13.10;99.90
31729;DHT22;18309;43.658;1.312;2024-03-08T14:34:33;13.10;99.90
31729;DHT22;18309;43.658;1.312;2024-03-08T14:37:00;13.20;99.90
31729;DHT22;18309;43.658;1.312;2024-03-08T14:39:26;13.30;99.90
31729;DHT22;18309;43.658;1.312;2024-03-08T14:41:55;13.40;99.90
31729;DHT22;18309;43.658;1.312;2024-03-08T14:44:23;13.90;99.90
31729;DHT22;18309;43.658;1.312;2024-03-08T14:46:57;17.50;99.90
31729;DHT22;18309;43.658;1.312;2024-03-08T14:49:23;21.20;99.90
31729;DHT22;18309;43.658;1.312;2024-03-08T14:51:51;23.20;96.00
31729;DHT22;18309;43.658;1.312;2024-03-08T14:54:17;24.60;91.50
31729;DHT22;18309;43.658;1.312;2024-03-08T14:56:48;24.40;92.50
31729;DHT22;18309;43.658;1.312;2024-03-08T14:59:15;25.30;90.70
31729;DHT22;18309;43.658;1.312;2024-03-08T15:01:40;25.40;88.80
31729;DHT22;18309;43.658;1.312;2024-03-08T15:04:09;23.50;93.00
31729;DHT22;18309;43.658;1.312;2024-03-08T15:06:36;22.20;95.00
31729;DHT22;18309;43.658;1.312;2024-03-08T15:09:03;20.50;96.40
31729;DHT22;18309;43.658;1.312;2024-03-08T15:11:40;20.60;96.70
31729;DHT22;18309;43.658;1.312;2024-03-08T15:14:06;20.20;97.80
31729;DHT22;18309;43.658;1.312;2024-03-08T15:16:40;20.30;97.70
31729;DHT22;18309;43.658;1.312;2024-03-08T15:19:07;20.10;97.90
31729;DHT22;18309;43.658;1.312;2024-03-08T15:21:33;20.10;98.60
31729;DHT22;18309;43.658;1.312;2024-03-08T15:24:00;20.20;98.00
31729;DHT22;18309;43.658;1.312;2024-03-08T15:26:31;20.20;98.10
31729;DHT22;18309;43.658;1.312;2024-03-08T15:28:57;19.80;97.30
31729;DHT22;18309;43.658;1.312;2024-03-08T15:31:23;19.40;98.90
31729;DHT22;18309;43.658;1.312;2024-03-08T15:33:52;18.90;98.80
31729;DHT22;18309;43.658;1.312;2024-03-08T15:36:28;18.60;97.80
31729;DHT22;18309;43.658;1.312;2024-03-08T15:38:56;18.20;99.80
31729;DHT22;18309;43.658;1.312;2024-03-08T15:41:22;18.70;99.90
31729;DHT22;18309;43.658;1.312;2024-03-08T15:43:48;19.00;99.90